sensor_id;sensor_type;location;lat;lon;timestamp;temperature;humidity
43414;DHT22;29013;49.676;8.606;2023-05-07T00:03:52;16.7;99.4
43414;DHT22;29013;49.676;8.606;2023-05-07T00:09:45;16.7;99.7
43414;DHT22;29013;49.676;8.606;2023-05-07T00:15:10;16.8;99.7
43414;DHT22;29013;49.676;8.606;2023-05-07T00:20:33;16.7;99.9
43414;DHT22;29013;49.676;8.606;2023-05-07T00:25:52;16.6;99.9
43414;DHT22;29013;49.676;8.606;2023-05-07T00:31:17;16.5;99.9
43414;DHT22;29013;49.676;8.606;2023-05-07T00:36:39;16.5;99.9
43414;DHT22;29013;49.676;8.606;2023-05-07T00:42:02;16.4;99.9
43414;DHT22;29013;49.676;8.606;2023-05-07T00:47:27;16.4;99.9
43414;DHT22;29013;49.676;8.606;2023-05-07T00:52:51;16.3;99.9
43414;DHT22;29013;49.676;8.606;2023-05-07T00:58:16;16.3;99.9
43414;DHT22;29013;49.676;8.606;2023-05-07T01:03:40;16.2;99.9
43414;DHT22;29013;49.676;8.606;2023-05-07T01:09:05;16.0;99.9
43414;DHT22;29013;49.676;8.606;2023-05-07T01:14:29;15.9;99.9
43414;DHT22;29013;49.676;8.606;2023-05-07T01:19:51;15.8;99.9
43414;DHT22;29013;49.676;8.606;2023-05-07T01:25:11;15.7;99.9
43414;DHT22;29013;49.676;8.606;2023-05-07T01:30:30;15.7;99.9
43414;DHT22;29013;49.676;8.606;2023-05-07T01:35:55;15.7;99.9
43414;DHT22;29013;49.676;8.606;2023-05-07T01:41:16;15.6;99.9
43414;DHT22;29013;49.676;8.606;2023-05-07T01:46:41;15.5;99.9
43414;DHT22;29013;49.676;8.606;2023-05-07T01:52:06;15.4;99.9
43414;DHT22;29013;49.676;8.606;2023-05-07T01:57:30;15.4;99.9
43414;DHT22;29013;49.676;8.606;2023-05-07T02:02:55;15.3;99.9
43414;DHT22;29013;49.676;8.606;2023-05-07T02:08:17;15.3;99.9
43414;DHT22;29013;49.676;8.606;2023-05-07T02:13:41;15.3;99.9
43414;DHT22;29013;49.676;8.606;2023-05-07T02:19:04;15.3;99.9
43414;DHT22;29013;49.676;8.606;2023-05-07T02:24:22;15.3;99.9
43414;DHT22;29013;49.676;8.606;2023-05-07T02:29:42;15.4;99.9
43414;DHT22;29013;49.676;8.606;2023-05-07T02:35:09;15.3;99.9
43414;DHT22;29013;49.676;8.606;2023-05-07T02:40:56;15.3;99.9
43414;DHT22;29013;49.676;8.606;2023-05-07T02:46:19;15.3;99.9
43414;DHT22;29013;49.676;8.606;2023-05-07T02:51:41;15.2;99.9
43414;DHT22;29013;49.676;8.606;2023-05-07T02:57:03;15.1;99.9
43414;DHT22;29013;49.676;8.606;2023-05-07T03:02:24;15.1;99.9
43414;DHT22;29013;49.676;8.606;2023-05-07T03:07:48;15.0;99.9
43414;DHT22;29013;49.676;8.606;2023-05-07T03:13:11;14.9;99.9
43414;DHT22;29013;49.676;8.606;2023-05-07T03:18:34;14.6;99.9
43414;DHT22;29013;49.676;8.606;2023-05-07T03:24:22;14.4;99.9
43414;DHT22;29013;49.676;8.606;2023-05-07T03:29:43;14.6;99.9
43414;DHT22;29013;49.676;8.606;2023-05-07T03:35:08;14.5;99.9
43414;DHT22;29013;49.676;8.606;2023-05-07T03:40:30;14.5;99.9
43414;DHT22;29013;49.676;8.606;2023-05-07T03:45:55;14.5;99.9
43414;DHT22;29013;49.676;8.606;2023-05-07T03:51:20;14.5;99.9
43414;DHT22;29013;49.676;8.606;2023-05-07T03:56:43;14.5;99.9
43414;DHT22;29013;49.676;8.606;2023-05-07T04:02:07;14.4;99.9
43414;DHT22;29013;49.676;8.606;2023-05-07T04:07:33;14.4;99.9
43414;DHT22;29013;49.676;8.606;2023-05-07T04:12:58;14.5;99.9
43414;DHT22;29013;49.676;8.606;2023-05-07T04:18:20;14.5;99.9
43414;DHT22;29013;49.676;8.606;2023-05-07T04:23:38;14.7;99.9
43414;DHT22;29013;49.676;8.606;2023-05-07T04:28:59;14.8;99.9
43414;DHT22;29013;49.676;8.606;2023-05-07T04:34:22;14.8;99.9
43414;DHT22;29013;49.676;8.606;2023-05-07T04:39:47;15.0;99.9
43414;DHT22;29013;49.676;8.606;2023-05-07T04:45:11;15.0;99.9
43414;DHT22;29013;49.676;8.606;2023-05-07T04:50:35;15.1;99.9
43414;DHT22;29013;49.676;8.606;2023-05-07T04:55:59;15.1;99.9
43414;DHT22;29013;49.676;8.606;2023-05-07T05:01:23;15.2;99.9
43414;DHT22;29013;49.676;8.606;2023-05-07T05:06:48;15.2;99.9
43414;DHT22;29013;49.676;8.606;2023-05-07T05:12:12;15.3;99.9
43414;DHT22;29013;49.676;8.606;2023-05-07T05:17:36;15.3;99.9
43414;DHT22;29013;49.676;8.606;2023-05-07T05:22:57;15.5;99.9
43414;DHT22;29013;49.676;8.606;2023-05-07T05:28:15;15.6;99.9
43414;DHT22;29013;49.676;8.606;2023-05-07T05:33:39;15.7;99.9
43414;DHT22;29013;49.676;8.606;2023-05-07T05:38:59;15.9;99.9
43414;DHT22;29013;49.676;8.606;2023-05-07T05:44:20;16.0;99.9
43414;DHT22;29013;49.676;8.606;2023-05-07T05:49:45;16.1;99.9
43414;DHT22;29013;49.676;8.606;2023-05-07T05:55:11;16.2;99.9
43414;DHT22;29013;49.676;8.606;2023-05-07T06:00:36;16.3;99.9
43414;DHT22;29013;49.676;8.606;2023-05-07T06:06:00;16.3;99.9
43414;DHT22;29013;49.676;8.606;2023-05-07T06:11:23;16.3;99.9
43414;DHT22;29013;49.676;8.606;2023-05-07T06:17:12;16.1;99.9
43414;DHT22;29013;49.676;8.606;2023-05-07T06:22:33;16.3;99.9
43414;DHT22;29013;49.676;8.606;2023-05-07T06:27:51;16.5;99.9
43414;DHT22;29013;49.676;8.606;2023-05-07T06:33:13;16.6;99.9
43414;DHT22;29013;49.676;8.606;2023-05-07T06:38:34;16.8;99.9
43414;DHT22;29013;49.676;8.606;2023-05-07T06:43:57;16.9;99.9
43414;DHT22;29013;49.676;8.606;2023-05-07T06:49:21;17.0;99.9
43414;DHT22;29013;49.676;8.606;2023-05-07T06:54:44;17.1;99.9
43414;DHT22;29013;49.676;8.606;2023-05-07T07:00:14;17.3;99.9
43414;DHT22;29013;49.676;8.606;2023-05-07T07:05:40;17.5;99.9
43414;DHT22;29013;49.676;8.606;2023-05-07T07:11:01;17.7;99.9
43414;DHT22;29013;49.676;8.606;2023-05-07T07:16:26;17.8;99.9
43414;DHT22;29013;49.676;8.606;2023-05-07T07:21:47;18.0;99.9
43414;DHT22;29013;49.676;8.606;2023-05-07T07:27:09;18.1;99.9
43414;DHT22;29013;49.676;8.606;2023-05-07T07:32:49;18.3;99.9
43414;DHT22;29013;49.676;8.606;2023-05-07T07:38:13;18.6;99.9
43414;DHT22;29013;49.676;8.606;2023-05-07T07:43:36;18.7;99.9
43414;DHT22;29013;49.676;8.606;2023-05-07T07:48:56;18.7;99.9
43414;DHT22;29013;49.676;8.606;2023-05-07T07:54:20;18.9;99.9
43414;DHT22;29013;49.676;8.606;2023-05-07T07:59:41;18.9;99.9
43414;DHT22;29013;49.676;8.606;2023-05-07T08:05:00;18.9;99.9
43414;DHT22;29013;49.676;8.606;2023-05-07T08:10:23;19.0;99.9
43414;DHT22;29013;49.676;8.606;2023-05-07T08:15:43;19.2;99.9
43414;DHT22;29013;49.676;8.606;2023-05-07T08:21:02;19.4;99.9
43414;DHT22;29013;49.676;8.606;2023-05-07T08:26:21;19.6;99.9
43414;DHT22;29013;49.676;8.606;2023-05-07T08:31:41;19.9;99.9
43414;DHT22;29013;49.676;8.606;2023-05-07T08:37:01;20.1;99.9
43414;DHT22;29013;49.676;8.606;2023-05-07T08:42:48;20.2;99.9
43414;DHT22;29013;49.676;8.606;2023-05-07T08:48:16;20.6;99.9
43414;DHT22;29013;49.676;8.606;2023-05-07T08:53:33;20.7;99.9
43414;DHT22;29013;49.676;8.606;2023-05-07T08:59:09;20.9;99.9
43414;DHT22;29013;49.676;8.606;2023-05-07T09:04:27;21.3;99.9
43414;DHT22;29013;49.676;8.606;2023-05-07T09:09:51;21.5;99.8
43414;DHT22;29013;49.676;8.606;2023-05-07T09:15:13;21.9;99.5
43414;DHT22;29013;49.676;8.606;2023-05-07T09:20:37;21.6;98.6
43414;DHT22;29013;49.676;8.606;2023-05-07T09:26:04;21.3;99.0
43414;DHT22;29013;49.676;8.606;2023-05-07T09:31:29;21.8;99.0
43414;DHT22;29013;49.676;8.606;2023-05-07T09:36:49;22.4;98.5
43414;DHT22;29013;49.676;8.606;2023-05-07T09:42:13;22.8;97.6
43414;DHT22;29013;49.676;8.606;2023-05-07T09:47:35;23.0;96.6
43414;DHT22;29013;49.676;8.606;2023-05-07T09:52:59;23.0;95.6
43414;DHT22;29013;49.676;8.606;2023-05-07T09:58:22;23.2;95.7
43414;DHT22;29013;49.676;8.606;2023-05-07T10:03:46;23.3;94.7
43414;DHT22;29013;49.676;8.606;2023-05-07T10:09:09;23.2;94.7
43414;DHT22;29013;49.676;8.606;2023-05-07T10:14:27;23.3;93.9
43414;DHT22;29013;49.676;8.606;2023-05-07T10:19:50;23.4;94.0
43414;DHT22;29013;49.676;8.606;2023-05-07T10:25:14;23.4;93.8
43414;DHT22;29013;49.676;8.606;2023-05-07T10:30:38;23.5;93.0
43414;DHT22;29013;49.676;8.606;2023-05-07T10:36:00;23.7;93.2
43414;DHT22;29013;49.676;8.606;2023-05-07T10:41:37;23.6;93.4
43414;DHT22;29013;49.676;8.606;2023-05-07T10:47:08;23.6;93.2
43414;DHT22;29013;49.676;8.606;2023-05-07T10:52:32;23.7;92.5
43414;DHT22;29013;49.676;8.606;2023-05-07T11:03:34;24.0;92.6
43414;DHT22;29013;49.676;8.606;2023-05-07T11:09:00;24.0;92.0
43414;DHT22;29013;49.676;8.606;2023-05-07T11:14:46;24.0;91.8
43414;DHT22;29013;49.676;8.606;2023-05-07T11:20:10;24.3;91.6
43414;DHT22;29013;49.676;8.606;2023-05-07T11:25:28;24.5;91.1
43414;DHT22;29013;49.676;8.606;2023-05-07T11:30:47;24.5;90.6
43414;DHT22;29013;49.676;8.606;2023-05-07T11:36:10;24.4;90.3
43414;DHT22;29013;49.676;8.606;2023-05-07T11:41:38;24.5;90.3
43414;DHT22;29013;49.676;8.606;2023-05-07T11:47:00;24.7;90.6
43414;DHT22;29013;49.676;8.606;2023-05-07T11:52:24;25.0;90.1
43414;DHT22;29013;49.676;8.606;2023-05-07T11:57:47;25.0;89.4
43414;DHT22;29013;49.676;8.606;2023-05-07T12:03:12;24.7;90.0
43414;DHT22;29013;49.676;8.606;2023-05-07T12:08:37;24.7;89.2
43414;DHT22;29013;49.676;8.606;2023-05-07T12:14:02;24.8;88.9
43414;DHT22;29013;49.676;8.606;2023-05-07T12:19:48;24.7;88.4
43414;DHT22;29013;49.676;8.606;2023-05-07T12:25:11;25.0;86.5
43414;DHT22;29013;49.676;8.606;2023-05-07T12:30:51;25.3;86.9
43414;DHT22;29013;49.676;8.606;2023-05-07T12:36:16;25.5;82.3
43414;DHT22;29013;49.676;8.606;2023-05-07T12:41:55;25.6;83.0
43414;DHT22;29013;49.676;8.606;2023-05-07T12:47:17;25.8;83.0
43414;DHT22;29013;49.676;8.606;2023-05-07T12:52:41;25.8;80.5
43414;DHT22;29013;49.676;8.606;2023-05-07T12:58:00;25.8;80.8
43414;DHT22;29013;49.676;8.606;2023-05-07T13:03:26;25.6;79.7
43414;DHT22;29013;49.676;8.606;2023-05-07T13:08:45;25.5;79.5
43414;DHT22;29013;49.676;8.606;2023-05-07T13:14:09;25.3;80.3
43414;DHT22;29013;49.676;8.606;2023-05-07T13:19:32;25.1;80.2
43414;DHT22;29013;49.676;8.606;2023-05-07T13:24:51;25.0;80.6
43414;DHT22;29013;49.676;8.606;2023-05-07T13:30:16;24.9;80.7
43414;DHT22;29013;49.676;8.606;2023-05-07T13:36:03;24.7;82.7
43414;DHT22;29013;49.676;8.606;2023-05-07T13:41:26;24.7;81.8
43414;DHT22;29013;49.676;8.606;2023-05-07T13:46:50;24.4;82.0
43414;DHT22;29013;49.676;8.606;2023-05-07T13:52:15;24.3;82.2
43414;DHT22;29013;49.676;8.606;2023-05-07T13:58:01;24.2;83.0
43414;DHT22;29013;49.676;8.606;2023-05-07T14:03:22;24.2;82.8
43414;DHT22;29013;49.676;8.606;2023-05-07T14:08:44;24.1;83.3
43414;DHT22;29013;49.676;8.606;2023-05-07T14:14:05;24.0;84.0
43414;DHT22;29013;49.676;8.606;2023-05-07T14:19:30;23.8;84.6
43414;DHT22;29013;49.676;8.606;2023-05-07T14:24:49;23.7;84.8
43414;DHT22;29013;49.676;8.606;2023-05-07T14:30:12;23.6;85.9
43414;DHT22;29013;49.676;8.606;2023-05-07T14:35:33;23.4;86.9
43414;DHT22;29013;49.676;8.606;2023-05-07T14:40:56;23.2;86.2
43414;DHT22;29013;49.676;8.606;2023-05-07T14:46:21;23.1;86.2
43414;DHT22;29013;49.676;8.606;2023-05-07T14:51:45;22.9;86.1
43414;DHT22;29013;49.676;8.606;2023-05-07T14:57:10;22.8;86.2
43414;DHT22;29013;49.676;8.606;2023-05-07T15:02:32;22.6;86.6
43414;DHT22;29013;49.676;8.606;2023-05-07T15:08:21;22.4;89.0
43414;DHT22;29013;49.676;8.606;2023-05-07T15:13:46;22.2;91.1
43414;DHT22;29013;49.676;8.606;2023-05-07T15:19:08;21.6;93.8
43414;DHT22;29013;49.676;8.606;2023-05-07T15:24:30;21.0;96.5
43414;DHT22;29013;49.676;8.606;2023-05-07T15:29:54;20.4;98.0
43414;DHT22;29013;49.676;8.606;2023-05-07T15:35:15;19.8;99.8
43414;DHT22;29013;49.676;8.606;2023-05-07T15:40:40;19.4;99.9
43414;DHT22;29013;49.676;8.606;2023-05-07T15:46:04;19.2;99.9
43414;DHT22;29013;49.676;8.606;2023-05-07T15:51:30;18.9;99.9
43414;DHT22;29013;49.676;8.606;2023-05-07T15:56:56;18.6;99.9
43414;DHT22;29013;49.676;8.606;2023-05-07T16:02:20;18.6;99.9
43414;DHT22;29013;49.676;8.606;2023-05-07T16:08:03;18.3;99.9
43414;DHT22;29013;49.676;8.606;2023-05-07T16:13:26;18.4;99.9
43414;DHT22;29013;49.676;8.606;2023-05-07T16:18:50;18.3;99.9
43414;DHT22;29013;49.676;8.606;2023-05-07T16:24:14;18.2;99.9
43414;DHT22;29013;49.676;8.606;2023-05-07T16:29:39;18.1;99.9
43414;DHT22;29013;49.676;8.606;2023-05-07T16:35:56;18.0;99.9
43414;DHT22;29013;49.676;8.606;2023-05-07T16:41:16;18.2;99.9
43414;DHT22;29013;49.676;8.606;2023-05-07T16:46:40;18.1;99.9
43414;DHT22;29013;49.676;8.606;2023-05-07T16:52:01;18.0;99.9
43414;DHT22;29013;49.676;8.606;2023-05-07T16:57:49;17.8;99.9
43414;DHT22;29013;49.676;8.606;2023-05-07T17:03:12;17.9;99.9
43414;DHT22;29013;49.676;8.606;2023-05-07T17:08:37;17.9;99.9
43414;DHT22;29013;49.676;8.606;2023-05-07T17:14:00;17.8;99.9
43414;DHT22;29013;49.676;8.606;2023-05-07T17:19:49;17.7;99.9
43414;DHT22;29013;49.676;8.606;2023-05-07T17:25:18;17.8;99.9
43414;DHT22;29013;49.676;8.606;2023-05-07T17:30:40;17.8;99.9
43414;DHT22;29013;49.676;8.606;2023-05-07T17:35:58;17.7;99.9
43414;DHT22;29013;49.676;8.606;2023-05-07T17:41:21;17.7;99.9
43414;DHT22;29013;49.676;8.606;2023-05-07T17:46:47;17.6;99.9
43414;DHT22;29013;49.676;8.606;2023-05-07T17:52:10;17.6;99.9
43414;DHT22;29013;49.676;8.606;2023-05-07T17:57:51;17.4;99.9
43414;DHT22;29013;49.676;8.606;2023-05-07T18:03:15;17.6;99.9
43414;DHT22;29013;49.676;8.606;2023-05-07T18:08:39;17.4;99.9
43414;DHT22;29013;49.676;8.606;2023-05-07T18:14:01;17.4;99.9
43414;DHT22;29013;49.676;8.606;2023-05-07T18:19:24;17.3;99.9
43414;DHT22;29013;49.676;8.606;2023-05-07T18:24:44;17.3;99.9
43414;DHT22;29013;49.676;8.606;2023-05-07T18:30:08;17.3;99.9
43414;DHT22;29013;49.676;8.606;2023-05-07T18:35:30;17.3;99.9
43414;DHT22;29013;49.676;8.606;2023-05-07T18:40:52;17.3;99.9
43414;DHT22;29013;49.676;8.606;2023-05-07T18:46:17;17.3;99.9
43414;DHT22;29013;49.676;8.606;2023-05-07T18:51:42;17.1;99.9
43414;DHT22;29013;49.676;8.606;2023-05-07T18:57:01;17.1;99.9
43414;DHT22;29013;49.676;8.606;2023-05-07T19:02:24;17.1;99.9
43414;DHT22;29013;49.676;8.606;2023-05-07T19:07:47;17.1;99.9
43414;DHT22;29013;49.676;8.606;2023-05-07T19:13:07;17.1;99.9
43414;DHT22;29013;49.676;8.606;2023-05-07T19:18:33;17.1;99.9
43414;DHT22;29013;49.676;8.606;2023-05-07T19:23:56;17.1;99.9
43414;DHT22;29013;49.676;8.606;2023-05-07T19:29:20;17.1;99.9
43414;DHT22;29013;49.676;8.606;2023-05-07T19:34:45;17.1;99.9
43414;DHT22;29013;49.676;8.606;2023-05-07T19:40:12;17.0;99.9
43414;DHT22;29013;49.676;8.606;2023-05-07T19:45:33;17.0;99.9
43414;DHT22;29013;49.676;8.606;2023-05-07T19:51:21;16.9;99.9
43414;DHT22;29013;49.676;8.606;2023-05-07T19:56:42;16.9;99.9
43414;DHT22;29013;49.676;8.606;2023-05-07T20:02:22;16.8;99.9
43414;DHT22;29013;49.676;8.606;2023-05-07T20:07:46;16.9;99.9
43414;DHT22;29013;49.676;8.606;2023-05-07T20:13:07;16.8;99.9
43414;DHT22;29013;49.676;8.606;2023-05-07T20:18:58;16.8;99.9
43414;DHT22;29013;49.676;8.606;2023-05-07T20:24:20;16.9;99.9
43414;DHT22;29013;49.676;8.606;2023-05-07T20:29:43;16.8;99.9
43414;DHT22;29013;49.676;8.606;2023-05-07T20:35:10;16.8;99.9
43414;DHT22;29013;49.676;8.606;2023-05-07T20:40:34;16.7;99.9
43414;DHT22;29013;49.676;8.606;2023-05-07T20:46:03;16.7;99.9
43414;DHT22;29013;49.676;8.606;2023-05-07T20:51:21;16.7;99.9
43414;DHT22;29013;49.676;8.606;2023-05-07T20:56:40;16.7;99.9
43414;DHT22;29013;49.676;8.606;2023-05-07T21:02:04;16.6;99.9
43414;DHT22;29013;49.676;8.606;2023-05-07T21:07:28;16.5;99.9
43414;DHT22;29013;49.676;8.606;2023-05-07T21:12:52;16.4;99.9
43414;DHT22;29013;49.676;8.606;2023-05-07T21:18:12;16.4;99.9
43414;DHT22;29013;49.676;8.606;2023-05-07T21:23:34;16.4;99.9
43414;DHT22;29013;49.676;8.606;2023-05-07T21:29:45;16.5;99.9
43414;DHT22;29013;49.676;8.606;2023-05-07T21:35:09;16.7;99.9
43414;DHT22;29013;49.676;8.606;2023-05-07T21:52:39;19.2;99.9
43414;DHT22;29013;49.676;8.606;2023-05-07T21:57:58;18.1;99.9
43414;DHT22;29013;49.676;8.606;2023-05-07T22:03:20;17.4;99.9
43414;DHT22;29013;49.676;8.606;2023-05-07T22:09:02;17.0;99.9
43414;DHT22;29013;49.676;8.606;2023-05-07T22:14:25;17.0;99.9
43414;DHT22;29013;49.676;8.606;2023-05-07T22:19:45;16.8;99.9
43414;DHT22;29013;49.676;8.606;2023-05-07T22:25:12;16.7;99.9
43414;DHT22;29013;49.676;8.606;2023-05-07T22:30:33;16.7;99.9
43414;DHT22;29013;49.676;8.606;2023-05-07T22:35:57;16.7;99.9
43414;DHT22;29013;49.676;8.606;2023-05-07T22:41:18;16.7;99.9
43414;DHT22;29013;49.676;8.606;2023-05-07T22:46:44;16.7;99.9
43414;DHT22;29013;49.676;8.606;2023-05-07T22:52:10;16.5;99.9
43414;DHT22;29013;49.676;8.606;2023-05-07T22:57:56;16.4;99.9
43414;DHT22;29013;49.676;8.606;2023-05-07T23:03:35;16.5;99.9
43414;DHT22;29013;49.676;8.606;2023-05-07T23:08:55;16.7;99.9
43414;DHT22;29013;49.676;8.606;2023-05-07T23:14:18;16.6;99.9
43414;DHT22;29013;49.676;8.606;2023-05-07T23:19:42;16.5;99.9
43414;DHT22;29013;49.676;8.606;2023-05-07T23:25:09;16.5;99.9
43414;DHT22;29013;49.676;8.606;2023-05-07T23:30:30;16.4;99.9
43414;DHT22;29013;49.676;8.606;2023-05-07T23:36:02;16.4;99.9
43414;DHT22;29013;49.676;8.606;2023-05-07T23:41:24;16.5;99.9
43414;DHT22;29013;49.676;8.606;2023-05-07T23:46:48;16.5;99.9
43414;DHT22;29013;49.676;8.606;2023-05-07T23:52:06;16.5;99.9
43414;DHT22;29013;49.676;8.606;2023-05-07T23:57:45;16.4;99.9
